Time,TemperatureF,DewpointF,PressureIn,WindDirection,WindDirectionDegrees,WindSpeedMPH,WindSpeedGustMPH,Humidity,HourlyPrecipIn,Conditions,Clouds,dailyrainin,SoftwareType,DateUTC
2013-03-26 00:04:00,32.1,28.0,29.59,NE,51,0.0,0.0,86,0.00,,,0.00,weatherlink.com 1.10,2013-03-26 04:04:00,
2013-03-26 00:19:00,32.4,28.0,29.60,NE,51,0.0,1.0,84,0.00,,,0.00,weatherlink.com 1.10,2013-03-26 04:19:00,
2013-03-26 00:34:00,34.7,28.0,29.60,NNE,20,0.0,4.0,77,0.00,,,0.00,weatherlink.com 1.10,2013-03-26 04:34:00,
2013-03-26 00:49:00,35.6,28.0,29.60,NNE,24,1.0,4.0,74,0.00,,,0.00,weatherlink.com 1.10,2013-03-26 04:49:00,
2013-03-26 01:04:00,35.8,28.0,29.60,NE,49,0.0,7.0,74,0.00,,,0.00,weatherlink.com 1.10,2013-03-26 05:04:00,
2013-03-26 01:19:00,35.4,28.0,29.61,NE,55,1.0,7.0,75,0.00,,,0.00,weatherlink.com 1.10,2013-03-26 05:19:00,
2013-03-26 01:34:00,35.1,28.0,29.61,NNE,18,1.0,6.0,76,0.00,,,0.00,weatherlink.com 1.10,2013-03-26 05:34:00,
2013-03-26 01:51:00,34.8,28.0,29.60,NNE,18,0.0,2.0,76,0.00,,,0.00,weatherlink.com 1.10,2013-03-26 05:51:00,
2013-03-26 02:04:00,34.6,28.0,29.60,NNE,18,0.0,2.0,77,0.00,,,0.00,weatherlink.com 1.10,2013-03-26 06:04:00,
2013-03-26 02:19:00,34.4,28.0,29.60,NNE,18,0.0,3.0,77,0.00,,,0.00,weatherlink.com 1.10,2013-03-26 06:19:00,
2013-03-26 02:34:00,34.1,28.0,29.60,NW,310,0.0,3.0,78,0.00,,,0.00,weatherlink.com 1.10,2013-03-26 06:34:00,
2013-03-26 02:49:00,33.9,28.0,29.59,NW,310,0.0,0.0,79,0.00,,,0.00,weatherlink.com 1.10,2013-03-26 06:49:00,
2013-03-26 03:04:00,33.4,28.0,29.59,NW,310,0.0,0.0,81,0.00,,,0.00,weatherlink.com 1.10,2013-03-26 07:04:00,
2013-03-26 03:19:00,32.9,28.0,29.59,NW,310,0.0,0.0,83,0.00,,,0.00,weatherlink.com 1.10,2013-03-26 07:19:00,
2013-03-26 03:34:00,32.5,28.0,29.59,NW,310,0.0,0.0,83,0.00,,,0.00,weatherlink.com 1.10,2013-03-26 07:34:00,
2013-03-26 03:49:00,32.3,28.0,29.59,NW,310,0.0,0.0,84,0.00,,,0.00,weatherlink.com 1.10,2013-03-26 07:49:00,
2013-03-26 04:04:00,32.1,28.0,29.59,NW,310,0.0,0.0,85,0.00,,,0.00,weatherlink.com 1.10,2013-03-26 08:04:00,
2013-03-26 04:19:00,32.0,28.0,29.59,NW,310,0.0,0.0,85,0.00,,,0.00,weatherlink.com 1.10,2013-03-26 08:19:00,
2013-03-26 04:34:00,31.8,28.0,29.60,NW,310,0.0,0.0,87,0.00,,,0.00,weatherlink.com 1.10,2013-03-26 08:34:00,
2013-03-26 04:49:00,31.6,28.0,29.60,NW,310,0.0,0.0,87,0.00,,,0.00,weatherlink.com 1.10,2013-03-26 08:49:00,
2013-03-26 05:04:00,31.4,28.0,29.60,NW,310,0.0,0.0,88,0.00,,,0.00,weatherlink.com 1.10,2013-03-26 09:04:00,
2013-03-26 05:19:00,31.3,28.0,29.60,NW,310,0.0,0.0,88,0.00,,,0.00,weatherlink.com 1.10,2013-03-26 09:19:00,
2013-03-26 05:34:00,31.2,28.0,29.60,NW,310,0.0,0.0,89,0.00,,,0.00,weatherlink.com 1.10,2013-03-26 09:34:00,
2013-03-26 05:49:00,31.1,28.0,29.61,NW,310,0.0,0.0,89,0.00,,,0.00,weatherlink.com 1.10,2013-03-26 09:49:00,
2013-03-26 06:04:00,31.0,29.0,29.62,NW,310,0.0,0.0,90,0.00,,,0.00,weatherlink.com 1.10,2013-03-26 10:04:00,
2013-03-26 06:19:00,30.6,28.0,29.62,NW,310,0.0,0.0,90,0.00,,,0.00,weatherlink.com 1.10,2013-03-26 10:19:00,
2013-03-26 06:35:00,30.1,28.0,29.62,NW,310,0.0,0.0,91,0.00,,,0.00,weatherlink.com 1.10,2013-03-26 10:35:00,
2013-03-26 06:50:00,29.7,27.0,29.63,NW,310,0.0,0.0,91,0.00,,,0.00,weatherlink.com 1.10,2013-03-26 10:50:00,
2013-03-26 07:05:00,29.3,27.0,29.63,NW,310,0.0,0.0,91,0.00,,,0.00,weatherlink.com 1.10,2013-03-26 11:05:00,
2013-03-26 07:20:00,29.7,28.0,29.64,NW,310,0.0,0.0,93,0.00,,,0.00,weatherlink.com 1.10,2013-03-26 11:20:00,
2013-03-26 07:35:00,31.0,29.0,29.64,NW,310,0.0,0.0,92,0.00,,,0.00,weatherlink.com 1.10,2013-03-26 11:35:00,
2013-03-26 07:50:00,31.9,29.0,29.64,NW,310,2.0,3.0,90,0.00,,,0.00,weatherlink.com 1.10,2013-03-26 11:50:00,
2013-03-26 08:05:00,34.5,29.0,29.65,NW,310,1.0,4.0,81,0.00,,,0.00,weatherlink.com 1.10,2013-03-26 12:05:00,
2013-03-26 08:20:00,35.9,29.0,29.65,NW,306,1.0,5.0,75,0.00,,,0.00,weatherlink.com 1.10,2013-03-26 12:20:00,
2013-03-26 08:35:00,37.0,27.0,29.65,WNW,290,3.0,5.0,67,0.00,,,0.00,weatherlink.com 1.10,2013-03-26 12:35:00,
2013-03-26 08:50:00,37.3,24.0,29.66,NW,326,2.0,9.0,60,0.00,,,0.00,weatherlink.com 1.10,2013-03-26 12:50:00,
2013-03-26 09:08:00,38.3,25.0,29.66,NW,325,1.0,6.0,60,0.00,,,0.00,weatherlink.com 1.10,2013-03-26 13:08:00,
2013-03-26 09:20:00,38.6,25.0,29.66,WNW,298,5.0,6.0,59,0.00,,,0.00,weatherlink.com 1.10,2013-03-26 13:20:00,
2013-03-26 09:35:00,39.2,25.0,29.66,SE,138,2.0,7.0,57,0.00,,,0.00,weatherlink.com 1.10,2013-03-26 13:35:00,
2013-03-26 09:50:00,39.5,24.0,29.67,NW,319,3.0,8.0,55,0.00,,,0.00,weatherlink.com 1.10,2013-03-26 13:50:00,
2013-03-26 10:05:00,40.2,23.0,29.67,WNW,302,1.0,11.0,51,0.00,,,0.00,weatherlink.com 1.10,2013-03-26 14:05:00,
2013-03-26 10:20:00,39.9,22.0,29.67,NE,46,2.0,11.0,50,0.00,,,0.00,weatherlink.com 1.10,2013-03-26 14:20:00,
2013-03-26 10:35:00,40.5,22.0,29.67,West,278,9.0,9.0,48,0.00,,,0.00,weatherlink.com 1.10,2013-03-26 14:35:00,
2013-03-26 10:50:00,40.9,22.0,29.67,South,188,3.0,7.0,47,0.00,,,0.00,weatherlink.com 1.10,2013-03-26 14:50:00,
2013-03-26 11:05:00,41.6,22.0,29.67,West,266,10.0,10.0,46,0.00,,,0.00,weatherlink.com 1.10,2013-03-26 15:05:00,
2013-03-26 11:20:00,41.6,21.0,29.67,NW,305,1.0,9.0,44,0.00,,,0.00,weatherlink.com 1.10,2013-03-26 15:20:00,
2013-03-26 11:35:00,42.3,22.0,29.67,NW,306,6.0,11.0,44,0.00,,,0.00,weatherlink.com 1.10,2013-03-26 15:35:00,
2013-03-26 11:50:00,42.6,23.0,29.67,West,271,0.0,9.0,46,0.00,,,0.00,weatherlink.com 1.10,2013-03-26 15:50:00,
2013-03-26 12:05:00,42.2,22.0,29.67,NW,307,4.0,10.0,45,0.00,,,0.00,weatherlink.com 1.10,2013-03-26 16:05:00,
2013-03-26 12:20:00,43.3,22.0,29.67,NW,306,2.0,8.0,43,0.00,,,0.00,weatherlink.com 1.10,2013-03-26 16:20:00,
2013-03-26 12:35:00,44.3,22.0,29.67,WSW,249,5.0,9.0,42,0.00,,,0.00,weatherlink.com 1.10,2013-03-26 16:35:00,
2013-03-26 12:50:00,44.1,23.0,29.66,NW,305,2.0,8.0,43,0.00,,,0.00,weatherlink.com 1.10,2013-03-26 16:50:00,
2013-03-26 13:05:00,44.3,22.0,29.66,WNW,288,4.0,12.0,41,0.00,,,0.00,weatherlink.com 1.10,2013-03-26 17:05:00,
2013-03-26 13:20:00,44.5,21.0,29.66,NW,325,1.0,10.0,40,0.00,,,0.00,weatherlink.com 1.10,2013-03-26 17:20:00,
2013-03-26 13:35:00,44.1,24.0,29.66,WNW,302,4.0,8.0,45,0.00,,,0.00,weatherlink.com 1.10,2013-03-26 17:35:00,
2013-03-26 13:50:00,45.2,23.0,29.66,NW,323,0.0,8.0,41,0.00,,,0.00,weatherlink.com 1.10,2013-03-26 17:50:00,
2013-03-26 14:05:00,44.1,22.0,29.66,NW,304,4.0,9.0,42,0.00,,,0.00,weatherlink.com 1.10,2013-03-26 18:05:00,
2013-03-26 14:21:00,44.8,23.0,29.67,West,272,7.0,10.0,43,0.00,,,0.00,weatherlink.com 1.10,2013-03-26 18:21:00,
2013-03-26 14:36:00,45.2,24.0,29.66,WNW,292,9.0,11.0,43,0.00,,,0.00,weatherlink.com 1.10,2013-03-26 18:36:00,
2013-03-26 14:51:00,45.1,22.0,29.66,WSW,240,9.0,15.0,40,0.00,,,0.00,weatherlink.com 1.10,2013-03-26 18:51:00,
2013-03-26 15:22:00,45.2,22.0,29.65,NNW,329,8.0,17.0,40,0.00,,,0.00,weatherlink.com 1.10,2013-03-26 19:22:00,
2013-03-26 15:36:00,45.7,24.0,29.65,NW,316,6.0,10.0,42,0.00,,,0.00,weatherlink.com 1.10,2013-03-26 19:36:00,
2013-03-26 15:51:00,46.3,23.0,29.65,WNW,294,6.0,11.0,40,0.00,,,0.00,weatherlink.com 1.10,2013-03-26 19:51:00,
2013-03-26 16:06:00,46.3,22.0,29.65,West,267,4.0,15.0,38,0.00,,,0.00,weatherlink.com 1.10,2013-03-26 20:06:00,
2013-03-26 16:21:00,46.4,22.0,29.65,NNW,330,1.0,11.0,39,0.00,,,0.00,weatherlink.com 1.10,2013-03-26 20:21:00,
2013-03-26 16:36:00,46.0,21.0,29.65,SW,225,9.0,12.0,38,0.00,,,0.00,weatherlink.com 1.10,2013-03-26 20:36:00,
2013-03-26 17:36:00,46.0,20.0,29.66,WNW,287,3.0,12.0,36,0.00,,,0.00,weatherlink.com 1.10,2013-03-26 21:36:00,
2013-03-26 17:51:00,45.6,23.0,29.66,NW,312,5.0,13.0,41,0.00,,,0.00,weatherlink.com 1.10,2013-03-26 21:51:00,
2013-03-26 18:06:00,45.3,23.0,29.67,WNW,302,3.0,12.0,42,0.00,,,0.00,weatherlink.com 1.10,2013-03-26 22:06:00,
2013-03-26 18:21:00,45.4,22.0,29.68,WSW,257,0.0,7.0,39,0.00,,,0.00,weatherlink.com 1.10,2013-03-26 22:21:00,
2013-03-26 18:36:00,44.3,22.0,29.69,WNW,286,0.0,8.0,41,0.00,,,0.00,weatherlink.com 1.10,2013-03-26 22:36:00,
2013-03-26 18:51:00,43.3,21.0,29.70,NW,304,3.0,12.0,41,0.00,,,0.00,weatherlink.com 1.10,2013-03-26 22:51:00,
2013-03-26 19:06:00,42.7,23.0,29.70,NW,323,0.0,6.0,45,0.00,,,0.00,weatherlink.com 1.10,2013-03-26 23:06:00,
2013-03-26 19:21:00,41.2,22.0,29.71,WNW,285,0.0,2.0,47,0.00,,,0.00,weatherlink.com 1.10,2013-03-26 23:21:00,
2013-03-26 19:36:00,39.1,23.0,29.72,WNW,285,0.0,0.0,52,0.00,,,0.00,weatherlink.com 1.10,2013-03-26 23:36:00,
2013-03-26 19:51:00,37.1,23.0,29.73,WNW,285,0.0,1.0,58,0.00,,,0.00,weatherlink.com 1.10,2013-03-26 23:51:00,
2013-03-26 20:06:00,35.6,25.0,29.74,WNW,285,0.0,0.0,65,0.00,,,0.00,weatherlink.com 1.10,2013-03-27 00:06:00,
2013-03-26 20:21:00,34.3,24.0,29.74,WNW,285,0.0,0.0,66,0.00,,,0.00,weatherlink.com 1.10,2013-03-27 00:21:00,
2013-03-26 20:36:00,33.3,26.0,29.75,WNW,285,0.0,0.0,73,0.00,,,0.00,weatherlink.com 1.10,2013-03-27 00:36:00,
2013-03-26 20:51:00,32.2,24.0,29.75,WNW,285,0.0,0.0,73,0.00,,,0.00,weatherlink.com 1.10,2013-03-27 00:51:00,
2013-03-26 21:06:00,31.2,24.0,29.76,WNW,285,0.0,0.0,74,0.00,,,0.00,weatherlink.com 1.10,2013-03-27 01:06:00,
2013-03-26 21:21:00,30.5,23.0,29.77,WNW,285,0.0,0.0,73,0.00,,,0.00,weatherlink.com 1.10,2013-03-27 01:21:00,
2013-03-26 21:36:00,29.9,23.0,29.77,WNW,285,0.0,0.0,74,0.00,,,0.00,weatherlink.com 1.10,2013-03-27 01:36:00,
2013-03-26 21:51:00,29.5,23.0,29.77,WNW,285,0.0,0.0,77,0.00,,,0.00,weatherlink.com 1.10,2013-03-27 01:51:00,
2013-03-26 22:06:00,29.1,23.0,29.77,WNW,285,0.0,0.0,78,0.00,,,0.00,weatherlink.com 1.10,2013-03-27 02:06:00,
2013-03-26 22:21:00,28.8,23.0,29.77,WNW,285,0.0,0.0,79,0.00,,,0.00,weatherlink.com 1.10,2013-03-27 02:21:00,
2013-03-26 22:38:00,29.2,24.0,29.77,WNW,285,1.0,2.0,82,0.00,,,0.00,weatherlink.com 1.10,2013-03-27 02:38:00,
2013-03-26 22:52:00,30.2,24.0,29.77,WNW,285,0.0,1.0,79,0.00,,,0.00,weatherlink.com 1.10,2013-03-27 02:52:00,
2013-03-26 23:07:00,29.9,25.0,29.77,WNW,285,0.0,0.0,81,0.00,,,0.00,weatherlink.com 1.10,2013-03-27 03:07:00,
2013-03-26 23:22:00,29.6,25.0,29.77,WNW,285,0.0,0.0,82,0.00,,,0.00,weatherlink.com 1.10,2013-03-27 03:22:00,
2013-03-26 23:37:00,28.9,24.0,29.77,WNW,285,0.0,0.0,83,0.00,,,0.00,weatherlink.com 1.10,2013-03-27 03:37:00,
2013-03-26 23:52:00,28.5,24.0,29.77,WNW,285,0.0,0.0,84,0.00,,,0.00,weatherlink.com 1.10,2013-03-27 03:52:00,